Terminal Aerodrome Forecast
Issued by NWS

Home | Current Version | Previous Version | Text Only | Print | Product List | Glossary On
Versions: 1 2 3 4 5 6 7 8 9 10 11 12 13 14 15 16 17 18 19 20 21 22 23 24 25 26 27 28 29 30 31 32 33 34 35 36 37 38 39 40 41 42
000
FTUS46 KEKA 201129
TAFACV
TAF
KACV 201129Z 2012/2112 17010KT 6SM -RA BR OVC003
     FM201400 18010KT 4SM -SHRA BR SCT003 BKN008
     FM201800 28008KT 6SM -SHRA VCTS SCT008 BKN020CB
     FM210000 30006KT P6SM SCT008 BKN020
     FM210800 33003KT 2SM BR SCT005 BKN015=

USA.gov is the U.S. government's official web portal to all federal, state and local government web resources and services.